createdAt,value
2023-04-15T00:00:43.835Z,87245.00
2023-04-15T00:01:43.836Z,87239.00
2023-04-15T00:02:43.856Z,87241.00
2023-04-15T00:03:43.942Z,87241.00
2023-04-15T00:04:43.765Z,87239.00
2023-04-15T00:05:43.707Z,87239.00
2023-04-15T00:06:43.676Z,87239.00
2023-04-15T00:07:43.650Z,87239.00
2023-04-15T00:08:43.634Z,87239.00
2023-04-15T00:09:43.593Z,87239.00
2023-04-15T00:10:43.562Z,87237.00
2023-04-15T00:11:43.553Z,87237.00
2023-04-15T00:12:43.509Z,87235.00
2023-04-15T00:13:43.524Z,87237.00
2023-04-15T00:14:43.516Z,87239.00
2023-04-15T00:15:43.553Z,87239.00
2023-04-15T00:16:43.555Z,87239.00
2023-04-15T00:17:43.624Z,87239.00
2023-04-15T00:18:43.558Z,87239.00
2023-04-15T00:19:43.613Z,87239.00
2023-04-15T00:20:43.607Z,87239.00
2023-04-15T00:21:43.614Z,87241.00
2023-04-15T00:22:43.624Z,87239.00
2023-04-15T00:23:43.617Z,87241.00
2023-04-15T00:24:43.617Z,87243.00
2023-04-15T00:25:43.623Z,87243.00
2023-04-15T00:26:43.630Z,87241.00
2023-04-15T00:27:43.641Z,87241.00
2023-04-15T00:28:43.694Z,87241.00
2023-04-15T00:29:43.734Z,87239.00
2023-04-15T00:30:43.729Z,87241.00
2023-04-15T00:31:43.775Z,87239.00
2023-04-15T00:32:43.774Z,87241.00
2023-04-15T00:33:43.744Z,87241.00
2023-04-15T00:34:43.756Z,87241.00
2023-04-15T00:35:43.742Z,87243.00
2023-04-15T00:36:43.709Z,87243.00
2023-04-15T00:37:45.914Z,87243.00
2023-04-15T00:38:43.776Z,87241.00
2023-04-15T00:39:43.784Z,87239.00
2023-04-15T00:40:43.768Z,87239.00
2023-04-15T00:41:43.781Z,87237.00
2023-04-15T00:42:43.788Z,87237.00
2023-04-15T00:43:43.796Z,87237.00
2023-04-15T00:44:43.801Z,87239.00
2023-04-15T00:45:43.828Z,87237.00
2023-04-15T00:46:43.801Z,87237.00
2023-04-15T00:47:43.836Z,87239.00
2023-04-15T00:48:43.834Z,87241.00
2023-04-15T00:49:43.846Z,87235.00
2023-04-15T00:50:43.842Z,87237.00
2023-04-15T00:51:43.859Z,87237.00
2023-04-15T00:52:43.845Z,87237.00
2023-04-15T00:53:43.856Z,87235.00
2023-04-15T00:54:43.849Z,87235.00
2023-04-15T00:55:43.856Z,87235.00
2023-04-15T00:56:43.854Z,87235.00
2023-04-15T00:57:43.883Z,87237.00
2023-04-15T00:58:43.886Z,87237.00
2023-04-15T00:59:43.890Z,87237.00
2023-04-15T01:00:43.892Z,87235.00
2023-04-15T01:01:43.949Z,87235.00
2023-04-15T01:02:44.073Z,87235.00
2023-04-15T01:03:44.023Z,87235.00
2023-04-15T01:04:43.913Z,87233.00
2023-04-15T01:05:43.890Z,87235.00
2023-04-15T01:06:43.863Z,87235.00
2023-04-15T01:07:43.858Z,87233.00
2023-04-15T01:08:43.825Z,87233.00
2023-04-15T01:09:43.800Z,87235.00
2023-04-15T01:10:43.810Z,87235.00
2023-04-15T01:11:43.768Z,87235.00
2023-04-15T01:12:43.754Z,87237.00
2023-04-15T01:13:43.722Z,87235.00
2023-04-15T01:14:43.703Z,87235.00
2023-04-15T01:15:43.703Z,87235.00
2023-04-15T01:16:43.675Z,87233.00
2023-04-15T01:17:43.664Z,87235.00
2023-04-15T01:18:43.610Z,87233.00
2023-04-15T01:19:43.601Z,87235.00
2023-04-15T01:20:43.577Z,87235.00
2023-04-15T01:21:43.541Z,87235.00
2023-04-15T01:22:43.547Z,87235.00
2023-04-15T01:23:43.572Z,87235.00
2023-04-15T01:24:43.568Z,87237.00
2023-04-15T01:25:43.600Z,87233.00
2023-04-15T01:26:44.694Z,87235.00
2023-04-15T01:27:43.594Z,87231.00
2023-04-15T01:28:43.592Z,87231.00
2023-04-15T01:29:43.572Z,87233.00
2023-04-15T01:30:43.532Z,87235.00
2023-04-15T01:31:43.537Z,87235.00
2023-04-15T01:32:43.524Z,87233.00
2023-04-15T01:33:43.500Z,87237.00
2023-04-15T01:34:43.464Z,87239.00
2023-04-15T01:35:43.458Z,87239.00
2023-04-15T01:36:43.427Z,87239.00
2023-04-15T01:37:43.405Z,87237.00
2023-04-15T01:38:43.369Z,87239.00
2023-04-15T01:39:43.363Z,87237.00
2023-04-15T01:40:43.333Z,87237.00
2023-04-15T01:41:43.322Z,87237.00
2023-04-15T01:42:43.302Z,87233.00
2023-04-15T01:43:43.270Z,87235.00
2023-04-15T01:44:43.279Z,87235.00
2023-04-15T01:45:43.262Z,87233.00
2023-04-15T01:46:43.250Z,87233.00
2023-04-15T01:47:43.201Z,87233.00
2023-04-15T01:48:43.185Z,87233.00
2023-04-15T01:49:43.213Z,87235.00
2023-04-15T01:50:43.212Z,87235.00
2023-04-15T01:51:43.211Z,87235.00
2023-04-15T01:52:43.209Z,87235.00
2023-04-15T01:53:43.219Z,87235.00
2023-04-15T01:54:43.242Z,87231.00
2023-04-15T01:55:43.238Z,87231.00
2023-04-15T01:56:43.266Z,87233.00
2023-04-15T01:57:43.262Z,87233.00
2023-04-15T01:58:43.261Z,87235.00
2023-04-15T01:59:43.278Z,87233.00
2023-04-15T02:00:43.352Z,87233.00
2023-04-15T02:01:43.306Z,87233.00
2023-04-15T02:02:43.439Z,87231.00
2023-04-15T02:03:43.392Z,87231.00
2023-04-15T02:04:43.354Z,87231.00
2023-04-15T02:05:43.342Z,87229.00
2023-04-15T02:06:43.357Z,87227.00
2023-04-15T02:07:43.406Z,87227.00
2023-04-15T02:08:43.361Z,87229.00
2023-04-15T02:09:43.376Z,87226.00
2023-04-15T02:10:43.391Z,87229.00
2023-04-15T02:11:43.396Z,87227.00
2023-04-15T02:12:43.400Z,87227.00
2023-04-15T02:13:43.414Z,87227.00
2023-04-15T02:14:43.440Z,87227.00
2023-04-15T02:15:43.427Z,87226.00
2023-04-15T02:16:43.468Z,87227.00
2023-04-15T02:17:43.480Z,87227.00
2023-04-15T02:18:43.465Z,87227.00
2023-04-15T02:19:43.469Z,87229.00
2023-04-15T02:20:43.489Z,87233.00
2023-04-15T02:21:43.486Z,87233.00
2023-04-15T02:22:43.530Z,87235.00
2023-04-15T02:23:43.500Z,87231.00
2023-04-15T02:24:43.508Z,87233.00
2023-04-15T02:25:43.500Z,87231.00
2023-04-15T02:26:44.478Z,87233.00
2023-04-15T02:27:43.450Z,87233.00
2023-04-15T02:28:43.438Z,87229.00
2023-04-15T02:29:43.407Z,87229.00
2023-04-15T02:30:43.382Z,87227.00
2023-04-15T02:31:43.380Z,87229.00
2023-04-15T02:32:43.350Z,87231.00
2023-04-15T02:33:43.325Z,87229.00
2023-04-15T02:34:43.304Z,87229.00
2023-04-15T02:35:43.265Z,87227.00
2023-04-15T02:36:43.264Z,87229.00
2023-04-15T02:37:43.234Z,87227.00
2023-04-15T02:38:43.209Z,87229.00
2023-04-15T02:39:43.204Z,87231.00
2023-04-15T02:40:43.160Z,87233.00
2023-04-15T02:41:43.136Z,87235.00
2023-04-15T02:42:43.132Z,87237.00
2023-04-15T02:43:43.159Z,87235.00
2023-04-15T02:44:43.201Z,87235.00
2023-04-15T02:45:43.320Z,87235.00
2023-04-15T02:46:43.247Z,87235.00
2023-04-15T02:47:43.368Z,87233.00
2023-04-15T02:48:43.230Z,87233.00
2023-04-15T02:49:43.215Z,87233.00
2023-04-15T02:50:43.195Z,87233.00
2023-04-15T02:51:43.166Z,87233.00
2023-04-15T02:52:43.147Z,87233.00
2023-04-15T02:53:43.118Z,87231.00
2023-04-15T02:54:43.114Z,87233.00
2023-04-15T02:55:43.166Z,87231.00
2023-04-15T02:56:43.050Z,87233.00
2023-04-15T02:57:43.044Z,87233.00
2023-04-15T02:58:43.024Z,87235.00
2023-04-15T02:59:43.013Z,87235.00
2023-04-15T03:00:42.984Z,87235.00
2023-04-15T03:01:43.196Z,87231.00
2023-04-15T03:02:43.247Z,87237.00
2023-04-15T03:03:43.058Z,87233.00
2023-04-15T03:04:42.915Z,87233.00
2023-04-15T03:05:42.930Z,87231.00
2023-04-15T03:06:42.917Z,87231.00
2023-04-15T03:07:42.933Z,87229.00
2023-04-15T03:08:42.988Z,87227.00
2023-04-15T03:09:42.959Z,87226.00
2023-04-15T03:10:42.992Z,87226.00
2023-04-15T03:11:42.993Z,87226.00
2023-04-15T03:12:42.991Z,87224.00
2023-04-15T03:13:43.012Z,87226.00
2023-04-15T03:14:43.020Z,87226.00
2023-04-15T03:15:43.096Z,87224.00
2023-04-15T03:16:43.073Z,87226.00
2023-04-15T03:17:43.099Z,87226.00
2023-04-15T03:18:43.093Z,87226.00
2023-04-15T03:19:43.123Z,87226.00
2023-04-15T03:20:43.147Z,87227.00
2023-04-15T03:21:43.139Z,87226.00
2023-04-15T03:22:43.145Z,87226.00
2023-04-15T03:23:43.119Z,87226.00
2023-04-15T03:24:43.092Z,87224.00
2023-04-15T03:25:43.076Z,87226.00
2023-04-15T03:26:43.056Z,87224.00
2023-04-15T03:27:43.032Z,87226.00
2023-04-15T03:28:43.016Z,87224.00
2023-04-15T03:29:43.037Z,87224.00
2023-04-15T03:30:42.984Z,87222.00
2023-04-15T03:31:42.960Z,87222.00
2023-04-15T03:32:42.974Z,87226.00
2023-04-15T03:33:42.917Z,87224.00
2023-04-15T03:34:42.905Z,87224.00
2023-04-15T03:35:42.872Z,87224.00
2023-04-15T03:36:42.859Z,87224.00
2023-04-15T03:37:42.828Z,87224.00
2023-04-15T03:38:42.818Z,87224.00
2023-04-15T03:39:42.787Z,87224.00
2023-04-15T03:40:42.775Z,87226.00
2023-04-15T03:41:42.755Z,87224.00
2023-04-15T03:42:42.723Z,87227.00
2023-04-15T03:43:42.698Z,87227.00
2023-04-15T03:44:42.687Z,87226.00
2023-04-15T03:45:42.666Z,87224.00
2023-04-15T03:46:42.665Z,87224.00
2023-04-15T03:47:42.665Z,87224.00
2023-04-15T03:48:42.608Z,87224.00
2023-04-15T03:49:42.586Z,87224.00
2023-04-15T03:50:42.572Z,87222.00
2023-04-15T03:51:42.544Z,87226.00
2023-04-15T03:52:42.537Z,87226.00
2023-04-15T03:53:42.548Z,87226.00
2023-04-15T03:54:42.509Z,87227.00
2023-04-15T03:55:42.479Z,87226.00
2023-04-15T03:56:42.464Z,87226.00
2023-04-15T03:57:42.454Z,87226.00
2023-04-15T03:58:42.457Z,87226.00
2023-04-15T03:59:42.475Z,87227.00
2023-04-15T04:00:42.488Z,87229.00
2023-04-15T04:01:42.512Z,87231.00
2023-04-15T04:02:42.656Z,87231.00
2023-04-15T04:03:42.644Z,87231.00
2023-04-15T04:04:42.661Z,87233.00
2023-04-15T04:05:42.571Z,87231.00
2023-04-15T04:06:42.596Z,87233.00
2023-04-15T04:07:42.592Z,87233.00
2023-04-15T04:08:42.618Z,87233.00
2023-04-15T04:09:42.632Z,87233.00
2023-04-15T04:10:42.646Z,87233.00
2023-04-15T04:11:42.666Z,87231.00
2023-04-15T04:12:42.665Z,87231.00
2023-04-15T04:13:42.699Z,87231.00
2023-04-15T04:14:42.712Z,87229.00
2023-04-15T04:15:42.781Z,87231.00
2023-04-15T04:16:42.782Z,87233.00
2023-04-15T04:17:42.782Z,87233.00
2023-04-15T04:18:42.778Z,87235.00
2023-04-15T04:19:42.787Z,87233.00
2023-04-15T04:20:42.833Z,87235.00
2023-04-15T04:21:42.825Z,87233.00
2023-04-15T04:22:42.875Z,87233.00
2023-04-15T04:23:42.903Z,87235.00
2023-04-15T04:24:42.953Z,87235.00
2023-04-15T04:25:42.932Z,87233.00
2023-04-15T04:26:42.939Z,87231.00
2023-04-15T04:27:42.976Z,87235.00
2023-04-15T04:28:42.973Z,87233.00
2023-04-15T04:29:43.001Z,87235.00
2023-04-15T04:30:43.018Z,87237.00
2023-04-15T04:31:43.056Z,87237.00
2023-04-15T04:32:43.094Z,87239.00
2023-04-15T04:33:43.028Z,87239.00
2023-04-15T04:34:43.010Z,87241.00
2023-04-15T04:35:42.990Z,87241.00
2023-04-15T04:36:42.984Z,87245.00
2023-04-15T04:37:42.947Z,87243.00
2023-04-15T04:38:42.924Z,87245.00
2023-04-15T04:39:42.920Z,87247.00
2023-04-15T04:40:42.882Z,87245.00
2023-04-15T04:41:42.847Z,87245.00
2023-04-15T04:42:42.858Z,87245.00
2023-04-15T04:43:42.823Z,87249.00
2023-04-15T04:44:42.794Z,87247.00
2023-04-15T04:45:42.881Z,87249.00
2023-04-15T04:46:42.758Z,87249.00
2023-04-15T04:47:42.779Z,87251.00
2023-04-15T04:48:43.083Z,87253.00
2023-04-15T04:49:42.793Z,87251.00
2023-04-15T04:50:42.801Z,87257.00
2023-04-15T04:51:42.814Z,87255.00
2023-04-15T04:52:42.832Z,87257.00
2023-04-15T04:53:42.854Z,87257.00
2023-04-15T04:54:42.901Z,87257.00
2023-04-15T04:55:42.907Z,87257.00
2023-04-15T04:56:42.909Z,87261.00
2023-04-15T04:57:42.941Z,87259.00
2023-04-15T04:58:42.954Z,87259.00
2023-04-15T04:59:42.980Z,87259.00
2023-04-15T05:00:43.015Z,87261.00
2023-04-15T05:01:43.053Z,87263.00
2023-04-15T05:02:43.145Z,87263.00
2023-04-15T05:03:43.042Z,87261.00
2023-04-15T05:04:43.067Z,87263.00
2023-04-15T05:05:43.070Z,87261.00
2023-04-15T05:06:43.090Z,87263.00
2023-04-15T05:07:43.105Z,87263.00
2023-04-15T05:08:43.132Z,87265.00
2023-04-15T05:09:43.143Z,87265.00
2023-04-15T05:10:43.163Z,87265.00
2023-04-15T05:11:43.181Z,87265.00
2023-04-15T05:12:43.205Z,87263.00
2023-04-15T05:13:43.210Z,87261.00
2023-04-15T05:14:43.265Z,87263.00
2023-04-15T05:15:43.323Z,87261.00
2023-04-15T05:16:43.266Z,87263.00
2023-04-15T05:17:43.345Z,87263.00
2023-04-15T05:18:43.300Z,87261.00
2023-04-15T05:19:43.326Z,87265.00
2023-04-15T05:20:43.358Z,87263.00
2023-04-15T05:21:43.359Z,87261.00
2023-04-15T05:22:43.401Z,87263.00
2023-04-15T05:23:43.391Z,87259.00
2023-04-15T05:24:43.442Z,87259.00
2023-04-15T05:25:43.444Z,87259.00
2023-04-15T05:26:43.473Z,87257.00
2023-04-15T05:27:43.501Z,87261.00
2023-04-15T05:28:43.517Z,87257.00
2023-04-15T05:29:43.528Z,87261.00
2023-04-15T05:30:43.561Z,87259.00
2023-04-15T05:31:43.589Z,87257.00
2023-04-15T05:32:43.686Z,87259.00
2023-04-15T05:33:43.606Z,87261.00
2023-04-15T05:34:43.625Z,87263.00
2023-04-15T05:35:43.642Z,87263.00
2023-04-15T05:36:43.667Z,87263.00
2023-04-15T05:37:43.692Z,87265.00
2023-04-15T05:38:43.698Z,87265.00
2023-04-15T05:39:43.717Z,87267.00
2023-04-15T05:40:43.732Z,87267.00
2023-04-15T05:41:43.756Z,87267.00
2023-04-15T05:42:43.775Z,87267.00
2023-04-15T05:43:43.806Z,87269.00
2023-04-15T05:44:43.823Z,87267.00
2023-04-15T05:45:43.836Z,87267.00
2023-04-15T05:46:43.887Z,87271.00
2023-04-15T05:49:03.040Z,87273.00
2023-04-15T05:50:02.804Z,87273.00
2023-04-15T05:51:02.827Z,87271.00
2023-04-15T05:52:02.795Z,87271.00
2023-04-15T05:53:02.804Z,87271.00
2023-04-15T05:54:02.801Z,87271.00
2023-04-15T05:55:02.801Z,87271.00
2023-04-15T05:56:02.795Z,87273.00
2023-04-15T05:57:02.796Z,87273.00
2023-04-15T05:58:02.776Z,87273.00
2023-04-15T05:59:02.953Z,87275.00
2023-04-15T06:00:02.773Z,87271.00
2023-04-15T06:01:02.786Z,87275.00
2023-04-15T06:02:02.776Z,87273.00
2023-04-15T06:03:02.825Z,87273.00
2023-04-15T06:04:02.856Z,87273.00
2023-04-15T06:05:02.876Z,87273.00
2023-04-15T06:06:02.775Z,87275.00
2023-04-15T06:07:02.776Z,87275.00
2023-04-15T06:08:02.763Z,87275.00
2023-04-15T06:09:02.855Z,87277.00
2023-04-15T06:10:02.746Z,87277.00
2023-04-15T06:11:02.744Z,87275.00
2023-04-15T06:12:02.725Z,87277.00
2023-04-15T06:13:02.716Z,87275.00
2023-04-15T06:14:02.727Z,87277.00
2023-04-15T06:15:02.713Z,87279.00
2023-04-15T06:16:02.722Z,87279.00
2023-04-15T06:17:02.712Z,87277.00
2023-04-15T06:18:02.728Z,87275.00
2023-04-15T06:19:02.831Z,87271.00
2023-04-15T06:20:02.724Z,87275.00
2023-04-15T06:21:02.705Z,87275.00
2023-04-15T06:22:02.703Z,87275.00
2023-04-15T06:23:02.699Z,87277.00
2023-04-15T06:24:02.697Z,87275.00
2023-04-15T06:25:02.684Z,87275.00
2023-04-15T06:26:02.683Z,87275.00
2023-04-15T06:27:02.700Z,87275.00
2023-04-15T06:28:02.675Z,87275.00
2023-04-15T06:29:02.934Z,87275.00
2023-04-15T06:30:02.673Z,87273.00
2023-04-15T06:31:02.663Z,87275.00
2023-04-15T06:32:02.652Z,87275.00
2023-04-15T06:33:02.678Z,87275.00
2023-04-15T06:34:02.643Z,87273.00
2023-04-15T06:35:02.630Z,87277.00
2023-04-15T06:36:02.649Z,87277.00
2023-04-15T06:37:04.417Z,87277.00
2023-04-15T06:38:02.624Z,87277.00
2023-04-15T06:39:02.846Z,87279.00
2023-04-15T06:40:02.591Z,87279.00
2023-04-15T06:41:02.587Z,87277.00
2023-04-15T06:42:02.587Z,87281.00
2023-04-15T06:43:02.566Z,87277.00
2023-04-15T06:44:02.567Z,87275.00
2023-04-15T06:45:02.558Z,87277.00
2023-04-15T06:46:02.677Z,87273.00
2023-04-15T06:47:02.537Z,87275.00
2023-04-15T06:48:02.544Z,87273.00
2023-04-15T06:49:02.640Z,87273.00
2023-04-15T06:50:02.517Z,87271.00
2023-04-15T06:51:02.505Z,87271.00
2023-04-15T06:52:02.522Z,87273.00
2023-04-15T06:53:02.478Z,87271.00
2023-04-15T06:54:02.472Z,87271.00
2023-04-15T06:55:02.473Z,87273.00
2023-04-15T06:56:02.460Z,87273.00
2023-04-15T06:57:02.458Z,87275.00
2023-04-15T06:58:02.453Z,87275.00
2023-04-15T06:59:02.555Z,87275.00
2023-04-15T07:00:02.479Z,87281.00
2023-04-15T07:01:02.511Z,87275.00
2023-04-15T07:02:02.428Z,87282.00
2023-04-15T07:03:02.426Z,87282.00
2023-04-15T07:04:02.426Z,87284.00
2023-04-15T07:05:02.397Z,87281.00
2023-04-15T07:06:02.390Z,87279.00
2023-04-15T07:07:02.427Z,87281.00
2023-04-15T07:08:02.403Z,87279.00
2023-04-15T07:09:02.653Z,87279.00
2023-04-15T07:10:02.390Z,87279.00
2023-04-15T07:11:02.440Z,87277.00
2023-04-15T07:12:02.459Z,87275.00
2023-04-15T07:13:02.462Z,87275.00
2023-04-15T07:14:02.515Z,87275.00
2023-04-15T07:15:02.501Z,87277.00
2023-04-15T07:16:02.530Z,87277.00
2023-04-15T07:17:02.602Z,87275.00
2023-04-15T07:18:02.611Z,87273.00
2023-04-15T07:19:02.694Z,87275.00
2023-04-15T07:20:02.586Z,87275.00
2023-04-15T07:21:02.586Z,87277.00
2023-04-15T07:22:02.606Z,87275.00
2023-04-15T07:23:02.621Z,87275.00
2023-04-15T07:24:02.624Z,87271.00
2023-04-15T07:25:02.648Z,87271.00
2023-04-15T07:26:02.663Z,87271.00
2023-04-15T07:27:02.695Z,87269.00
2023-04-15T07:28:02.694Z,87271.00
2023-04-15T07:29:03.109Z,87273.00
2023-04-15T07:30:02.731Z,87271.00
2023-04-15T07:31:02.820Z,87271.00
2023-04-15T07:32:02.757Z,87271.00
2023-04-15T07:33:02.782Z,87271.00
2023-04-15T07:34:02.799Z,87273.00
2023-04-15T07:35:02.803Z,87273.00
2023-04-15T07:36:02.825Z,87273.00
2023-04-15T07:37:02.809Z,87273.00
2023-04-15T07:38:02.798Z,87271.00
2023-04-15T07:39:03.117Z,87273.00
2023-04-15T07:40:02.778Z,87273.00
2023-04-15T07:41:02.879Z,87273.00
2023-04-15T07:42:02.770Z,87273.00
2023-04-15T07:43:02.744Z,87273.00
2023-04-15T07:44:02.737Z,87271.00
2023-04-15T07:45:02.723Z,87271.00
2023-04-15T07:46:02.747Z,87269.00
2023-04-15T07:47:02.746Z,87271.00
2023-04-15T07:48:02.761Z,87271.00
2023-04-15T07:49:02.811Z,87271.00
2023-04-15T07:50:02.724Z,87267.00
2023-04-15T07:51:02.673Z,87269.00
2023-04-15T07:52:02.666Z,87267.00
2023-04-15T07:53:02.718Z,87267.00
2023-04-15T07:54:02.678Z,87269.00
2023-04-15T07:55:02.660Z,87269.00
2023-04-15T07:56:02.660Z,87269.00
2023-04-15T07:57:02.644Z,87267.00
2023-04-15T07:58:02.657Z,87267.00
2023-04-15T07:59:02.861Z,87269.00
2023-04-15T08:00:02.636Z,87265.00
2023-04-15T08:01:02.619Z,87265.00
2023-04-15T08:02:02.722Z,87267.00
2023-04-15T08:03:02.899Z,87265.00
2023-04-15T08:04:02.801Z,87273.00
2023-04-15T08:05:02.632Z,87271.00
2023-04-15T08:06:02.593Z,87271.00
2023-04-15T08:07:02.599Z,87273.00
2023-04-15T08:08:02.601Z,87271.00
2023-04-15T08:09:02.670Z,87267.00
2023-04-15T08:10:02.566Z,87267.00
2023-04-15T08:11:02.561Z,87269.00
2023-04-15T08:12:02.551Z,87267.00
2023-04-15T08:13:02.571Z,87263.00
2023-04-15T08:14:02.532Z,87267.00
2023-04-15T08:15:02.564Z,87261.00
2023-04-15T08:16:02.563Z,87265.00
2023-04-15T08:17:02.527Z,87263.00
2023-04-15T08:18:02.500Z,87257.00
2023-04-15T08:19:02.715Z,87259.00
2023-04-15T08:20:02.577Z,87261.00
2023-04-15T08:21:02.630Z,87259.00
2023-04-15T08:22:02.645Z,87259.00
2023-04-15T08:23:02.654Z,87255.00
2023-04-15T08:24:02.635Z,87257.00
2023-04-15T08:25:02.642Z,87261.00
2023-04-15T08:26:02.656Z,87261.00
2023-04-15T08:27:02.632Z,87263.00
2023-04-15T08:28:02.680Z,87261.00
2023-04-15T08:29:02.922Z,87259.00
2023-04-15T08:30:04.671Z,87261.00
2023-04-15T08:31:02.660Z,87257.00
2023-04-15T08:32:02.644Z,87265.00
2023-04-15T08:33:02.733Z,87265.00
2023-04-15T08:34:02.632Z,87257.00
2023-04-15T08:35:02.615Z,87263.00
2023-04-15T08:36:02.618Z,87265.00
2023-04-15T08:37:02.614Z,87263.00
2023-04-15T08:38:02.622Z,87261.00
2023-04-15T08:39:02.833Z,87261.00
2023-04-15T08:40:02.700Z,87269.00
2023-04-15T08:41:02.581Z,87267.00
2023-04-15T08:42:02.709Z,87263.00
2023-04-15T08:43:02.595Z,87267.00
2023-04-15T08:44:02.607Z,87263.00
2023-04-15T08:45:02.589Z,87265.00
2023-04-15T08:46:02.589Z,87263.00
2023-04-15T08:47:02.756Z,87263.00
2023-04-15T08:48:02.635Z,87261.00
2023-04-15T08:49:02.681Z,87267.00
2023-04-15T08:50:02.540Z,87259.00
2023-04-15T08:51:02.539Z,87259.00
2023-04-15T08:52:02.519Z,87263.00
2023-04-15T08:53:02.528Z,87257.00
2023-04-15T08:54:02.550Z,87257.00
2023-04-15T08:55:02.520Z,87257.00
2023-04-15T08:56:02.494Z,87255.00
2023-04-15T08:57:02.509Z,87257.00
2023-04-15T08:58:02.530Z,87257.00
2023-04-15T08:59:02.631Z,87257.00
2023-04-15T09:00:03.838Z,87257.00
2023-04-15T09:01:02.480Z,87259.00
2023-04-15T09:02:02.473Z,87253.00
2023-04-15T09:03:02.546Z,87253.00
2023-04-15T09:04:02.466Z,87255.00
2023-04-15T09:05:02.450Z,87253.00
2023-04-15T09:06:02.427Z,87251.00
2023-04-15T09:07:02.431Z,87247.00
2023-04-15T09:08:02.479Z,87249.00
2023-04-15T09:09:02.564Z,87251.00
2023-04-15T09:10:02.390Z,87247.00
2023-04-15T09:11:02.378Z,87249.00
2023-04-15T09:12:02.355Z,87253.00
2023-04-15T09:13:02.336Z,87251.00
2023-04-15T09:14:02.337Z,87253.00
2023-04-15T09:15:02.300Z,87249.00
2023-04-15T09:16:02.300Z,87247.00
2023-04-15T09:17:02.417Z,87247.00
2023-04-15T09:18:02.297Z,87243.00
2023-04-15T09:19:02.469Z,87247.00
2023-04-15T09:20:02.268Z,87247.00
2023-04-15T09:21:02.235Z,87245.00
2023-04-15T09:22:02.229Z,87247.00
2023-04-15T09:23:02.202Z,87243.00
2023-04-15T09:24:02.418Z,87241.00
2023-04-15T09:25:02.182Z,87241.00
2023-04-15T09:26:02.163Z,87241.00
2023-04-15T09:27:02.149Z,87241.00
2023-04-15T09:28:02.262Z,87243.00
2023-04-15T09:29:02.111Z,87241.00
2023-04-15T09:30:02.120Z,87239.00
2023-04-15T09:31:02.222Z,87241.00
2023-04-15T09:32:02.094Z,87243.00
2023-04-15T09:33:02.142Z,87241.00
2023-04-15T09:34:02.240Z,87249.00
2023-04-15T09:35:02.167Z,87243.00
2023-04-15T09:36:02.034Z,87241.00
2023-04-15T09:37:02.069Z,87239.00
2023-04-15T09:38:01.998Z,87239.00
2023-04-15T09:39:01.974Z,87237.00
2023-04-15T09:40:01.961Z,87239.00
2023-04-15T09:41:01.956Z,87239.00
2023-04-15T09:42:02.001Z,87239.00
2023-04-15T09:43:02.048Z,87237.00
2023-04-15T09:44:02.263Z,87233.00
2023-04-15T09:45:02.034Z,87241.00
2023-04-15T09:46:02.056Z,87237.00
2023-04-15T09:47:02.047Z,87239.00
2023-04-15T09:48:02.147Z,87235.00
2023-04-15T09:49:02.139Z,87241.00
2023-04-15T09:50:02.290Z,87235.00
2023-04-15T09:51:02.197Z,87237.00
2023-04-15T09:52:06.136Z,87239.00
2023-04-15T09:53:02.221Z,87233.00
2023-04-15T09:54:02.614Z,87235.00
2023-04-15T09:55:02.191Z,87226.00
2023-04-15T09:56:02.179Z,87237.00
2023-04-15T09:57:02.162Z,87237.00
2023-04-15T09:58:02.185Z,87233.00
2023-04-15T09:59:02.147Z,87237.00
2023-04-15T10:00:02.152Z,87235.00
2023-04-15T10:01:02.171Z,87237.00
2023-04-15T10:02:02.112Z,87235.00
2023-04-15T10:03:02.154Z,87241.00
2023-04-15T10:04:02.320Z,87233.00
2023-04-15T10:05:02.023Z,87233.00
2023-04-15T10:06:02.081Z,87235.00
2023-04-15T10:07:01.975Z,87235.00
2023-04-15T10:08:01.970Z,87233.00
2023-04-15T10:09:01.948Z,87237.00
2023-04-15T10:10:01.959Z,87233.00
2023-04-15T10:11:01.933Z,87233.00
2023-04-15T10:12:01.875Z,87226.00
2023-04-15T10:13:01.842Z,87229.00
2023-04-15T10:14:02.238Z,87233.00
2023-04-15T10:15:01.800Z,87237.00
2023-04-15T10:16:01.841Z,87235.00
2023-04-15T10:17:01.837Z,87231.00
2023-04-15T10:18:01.902Z,87233.00
2023-04-15T10:19:01.894Z,87239.00
2023-04-15T10:20:02.008Z,87239.00
2023-04-15T10:21:01.975Z,87229.00
2023-04-15T10:22:01.992Z,87233.00
2023-04-15T10:23:02.050Z,87237.00
2023-04-15T10:24:02.164Z,87233.00
2023-04-15T10:25:02.081Z,87237.00
2023-04-15T10:26:02.089Z,87237.00
2023-04-15T10:27:02.115Z,87235.00
2023-04-15T10:28:02.150Z,87233.00
2023-04-15T10:29:02.166Z,87237.00
2023-04-15T10:30:02.183Z,87235.00
2023-04-15T10:31:02.180Z,87235.00
2023-04-15T10:32:02.178Z,87235.00
2023-04-15T10:33:02.240Z,87237.00
2023-04-15T10:34:02.374Z,87233.00
2023-04-15T10:35:02.101Z,87235.00
2023-04-15T10:36:02.065Z,87241.00
2023-04-15T10:37:02.032Z,87241.00
2023-04-15T10:38:02.023Z,87245.00
2023-04-15T10:39:02.017Z,87237.00
2023-04-15T10:40:02.120Z,87241.00
2023-04-15T10:41:01.959Z,87243.00
2023-04-15T10:42:01.942Z,87243.00
2023-04-15T10:43:01.980Z,87243.00
2023-04-15T10:44:02.151Z,87239.00
2023-04-15T10:45:02.071Z,87243.00
2023-04-15T10:46:02.069Z,87241.00
2023-04-15T10:47:02.060Z,87243.00
2023-04-15T10:48:03.637Z,87241.00
2023-04-15T10:49:02.120Z,87247.00
2023-04-15T10:50:02.245Z,87245.00
2023-04-15T10:51:02.154Z,87251.00
2023-04-15T10:52:02.207Z,87257.00
2023-04-15T10:53:02.204Z,87255.00
2023-04-15T10:54:02.296Z,87255.00
2023-04-15T10:55:02.267Z,87251.00
2023-04-15T10:56:02.308Z,87255.00
2023-04-15T10:57:02.315Z,87261.00
2023-04-15T10:58:02.333Z,87249.00
2023-04-15T10:59:02.364Z,87253.00
2023-04-15T11:00:02.402Z,87251.00
2023-04-15T11:01:02.373Z,87251.00
2023-04-15T11:02:02.447Z,87251.00
2023-04-15T11:03:02.450Z,87253.00
2023-04-15T11:04:02.842Z,87247.00
2023-04-15T11:05:02.313Z,87249.00
2023-04-15T11:06:02.352Z,87249.00
2023-04-15T11:07:02.349Z,87251.00
2023-04-15T11:08:02.373Z,87247.00
2023-04-15T11:09:02.385Z,87247.00
2023-04-15T11:10:02.412Z,87247.00
2023-04-15T11:11:02.455Z,87247.00
2023-04-15T11:12:02.456Z,87249.00
2023-04-15T11:13:02.477Z,87245.00
2023-04-15T11:14:02.583Z,87247.00
2023-04-15T11:15:02.520Z,87249.00
2023-04-15T11:16:02.666Z,87249.00
2023-04-15T11:17:02.546Z,87247.00
2023-04-15T11:18:02.603Z,87243.00
2023-04-15T11:19:02.607Z,87245.00
2023-04-15T11:20:02.645Z,87245.00
2023-04-15T11:21:02.642Z,87247.00
2023-04-15T11:22:02.661Z,87249.00
2023-04-15T11:23:14.078Z,87247.00
2023-04-15T11:24:04.069Z,87259.00
2023-04-15T11:25:02.634Z,87253.00
2023-04-15T11:26:02.623Z,87249.00
2023-04-15T11:27:02.571Z,87247.00
2023-04-15T11:28:02.535Z,87249.00
2023-04-15T11:29:02.739Z,87253.00
2023-04-15T11:30:02.509Z,87247.00
2023-04-15T11:31:02.462Z,87247.00
2023-04-15T11:32:02.527Z,87247.00
2023-04-15T11:33:02.491Z,87241.00
2023-04-15T11:34:02.472Z,87243.00
2023-04-15T11:35:02.487Z,87243.00
2023-04-15T11:36:02.532Z,87247.00
2023-04-15T11:37:02.503Z,87249.00
2023-04-15T11:38:02.537Z,87247.00
2023-04-15T11:39:02.579Z,87247.00
2023-04-15T11:40:02.578Z,87253.00
2023-04-15T11:41:02.616Z,87257.00
2023-04-15T11:42:02.651Z,87251.00
2023-04-15T11:43:02.670Z,87251.00
2023-04-15T11:44:02.919Z,87249.00
2023-04-15T11:45:02.730Z,87251.00
2023-04-15T11:46:02.836Z,87249.00